createdAt,value
2022-08-22T00:00:48.555Z,93766.88
2022-08-22T00:02:05.619Z,93763.84
2022-08-22T00:02:45.057Z,93785.78
2022-08-22T00:02:45.629Z,93783.66
2022-08-22T00:02:54.798Z,93786.75
2022-08-22T00:02:55.668Z,93769.41
2022-08-22T00:02:56.068Z,93785.59
2022-08-22T00:02:57.486Z,93795.09
2022-08-22T00:03:02.936Z,93797.84
2022-08-22T00:03:11.356Z,93783.22
2022-08-22T00:03:23.677Z,93761.50
2022-08-22T00:04:34.554Z,93760.75
2022-08-22T00:05:47.903Z,93764.28
2022-08-22T00:06:57.180Z,93761.59
2022-08-22T00:08:06.709Z,93759.81
2022-08-22T00:09:23.507Z,93764.69
2022-08-22T00:10:29.981Z,93763.06
2022-08-22T00:11:40.135Z,93757.06
2022-08-22T00:12:49.215Z,93749.75
2022-08-22T00:14:01.852Z,93751.19
2022-08-22T00:15:18.377Z,93745.78
2022-08-22T00:16:38.598Z,93749.81
2022-08-22T00:17:47.339Z,93748.03
2022-08-22T00:19:03.104Z,93750.56
2022-08-22T00:20:11.641Z,93748.09
2022-08-22T00:21:21.899Z,93753.78
2022-08-22T00:22:31.758Z,93746.56
2022-08-22T00:23:42.543Z,93752.22
2022-08-22T00:24:50.801Z,93744.88
2022-08-22T00:25:58.793Z,93748.59
2022-08-22T00:27:07.416Z,93747.44
2022-08-22T00:28:17.491Z,93751.34
2022-08-22T00:29:26.843Z,93746.25
2022-08-22T00:30:37.925Z,93739.38
2022-08-22T00:31:45.600Z,93742.13
2022-08-22T00:32:50.430Z,93743.75
2022-08-22T00:33:59.473Z,93732.56
2022-08-22T00:35:04.446Z,93737.44
2022-08-22T00:36:15.443Z,93740.91
2022-08-22T00:37:24.406Z,93735.56
2022-08-22T00:38:30.270Z,93740.69
2022-08-22T00:39:38.949Z,93736.97
2022-08-22T00:40:56.161Z,93736.97
2022-08-22T00:42:29.523Z,93736.16
2022-08-22T00:44:09.600Z,93735.56
2022-08-22T00:45:33.378Z,93738.66
2022-08-22T00:46:56.235Z,93733.53
2022-08-22T00:48:12.369Z,93739.38
2022-08-22T00:49:33.819Z,93736.84
2022-08-22T00:51:09.690Z,93734.66
2022-08-22T00:52:41.522Z,93736.19
2022-08-22T00:53:49.025Z,93735.03
2022-08-22T00:55:14.948Z,93732.03
2022-08-22T00:56:55.449Z,93734.94
2022-08-22T00:58:19.149Z,93730.88
2022-08-22T00:59:37.730Z,93742.16
2022-08-22T01:00:44.324Z,93731.22
2022-08-22T01:01:54.207Z,93732.63
2022-08-22T01:03:26.579Z,93736.91
2022-08-22T01:05:00.546Z,93736.91
2022-08-22T01:06:20.600Z,93735.75
2022-08-22T01:07:40.282Z,93739.69
2022-08-22T01:08:58.580Z,93737.19
2022-08-22T01:10:20.098Z,93736.38
2022-08-22T01:11:40.877Z,93735.56
2022-08-22T01:12:52.945Z,93731.50
2022-08-22T01:14:12.282Z,93728.50
2022-08-22T01:15:17.410Z,93731.19
2022-08-22T01:16:36.959Z,93734.66
2022-08-22T01:18:13.040Z,93739.19
2022-08-22T01:19:40.977Z,93735.72
2022-08-22T01:21:25.647Z,93726.53
2022-08-22T01:22:54.948Z,93729.28
2022-08-22T01:24:37.758Z,93733.91
2022-08-22T01:26:13.705Z,93724.97
2022-08-22T01:27:55.100Z,93727.38
2022-08-22T01:29:42.465Z,93726.00
2022-08-22T01:31:05.077Z,93721.59
2022-08-22T01:32:45.005Z,93730.41
2022-08-22T01:34:33.706Z,93729.41
2022-08-22T01:36:35.373Z,93729.41
2022-08-22T01:38:12.205Z,93728.28
2022-08-22T01:39:38.175Z,93732.44
2022-08-22T01:41:12.037Z,93726.06
2022-08-22T01:42:46.691Z,93726.06
2022-08-22T01:44:07.605Z,93726.72
2022-08-22T01:45:35.922Z,93724.16
2022-08-22T01:46:50.097Z,93721.59
2022-08-22T01:47:55.415Z,93733.66
2022-08-22T01:49:11.112Z,93722.72
2022-08-22T01:50:21.708Z,93729.13
2022-08-22T01:51:28.920Z,93732.00
2022-08-22T01:52:36.959Z,93734.88
2022-08-22T01:53:43.617Z,93729.31
2022-08-22T01:54:53.145Z,93729.19
2022-08-22T01:56:03.155Z,93738.63
2022-08-22T01:57:08.393Z,93736.53
2022-08-22T01:58:17.955Z,93731.41
2022-08-22T01:59:33.781Z,93737.91
2022-08-22T02:00:59.642Z,93733.28
2022-08-22T02:02:14.055Z,93738.16
2022-08-22T02:03:23.289Z,93733.03
2022-08-22T02:04:36.653Z,93728.88
2022-08-22T02:05:46.687Z,93730.81
2022-08-22T02:06:59.572Z,93729.00
2022-08-22T02:08:05.966Z,93730.59
2022-08-22T02:09:20.258Z,93731.88
2022-08-22T02:10:40.154Z,93725.63
2022-08-22T02:11:50.419Z,93725.38
2022-08-22T02:13:01.838Z,93729.56
2022-08-22T02:14:07.150Z,93730.16
2022-08-22T02:15:18.177Z,93729.31
2022-08-22T02:16:26.368Z,93729.31
2022-08-22T02:17:31.497Z,93735.69
2022-08-22T02:18:45.789Z,93731.28
2022-08-22T02:20:01.115Z,93728.19
2022-08-22T02:21:08.789Z,93728.06
2022-08-22T02:22:25.589Z,93735.22
2022-08-22T02:23:35.487Z,93726.19
2022-08-22T02:24:47.628Z,93733.69
2022-08-22T02:25:55.281Z,93730.06
2022-08-22T02:27:10.226Z,93732.72
2022-08-22T02:28:19.695Z,93729.63
2022-08-22T02:29:29.262Z,93730.09
2022-08-22T02:30:47.243Z,93734.72
2022-08-22T02:31:56.318Z,93735.59
2022-08-22T02:33:03.958Z,93734.03
2022-08-22T02:34:24.234Z,93732.94
2022-08-22T02:35:35.070Z,93733.19
2022-08-22T02:36:47.128Z,93730.63
2022-08-22T02:37:58.008Z,93733.88
2022-08-22T02:39:07.442Z,93722.00
2022-08-22T02:40:16.904Z,93728.38
2022-08-22T02:41:35.977Z,93731.75
2022-08-22T02:42:43.457Z,93726.19
2022-08-22T02:43:50.877Z,93725.59
2022-08-22T02:45:11.941Z,93721.63
2022-08-22T02:46:22.102Z,93723.13
2022-08-22T02:47:30.881Z,93724.44
2022-08-22T02:48:39.509Z,93721.56
2022-08-22T02:49:51.705Z,93718.16
2022-08-22T02:50:58.998Z,93720.94
2022-08-22T02:52:07.139Z,93722.94
2022-08-22T02:53:14.286Z,93722.34
2022-08-22T02:54:25.668Z,93717.16
2022-08-22T02:55:35.052Z,93715.28
2022-08-22T02:56:41.024Z,93717.59
2022-08-22T02:57:52.459Z,93716.53
2022-08-22T02:58:59.237Z,93711.28
2022-08-22T03:00:31.584Z,93717.75
2022-08-22T03:01:40.894Z,93715.44
2022-08-22T03:02:59.834Z,93711.09
2022-08-22T03:04:23.344Z,93713.06
2022-08-22T03:05:28.129Z,93712.09
2022-08-22T03:06:36.957Z,93714.38
2022-08-22T03:07:43.796Z,93712.78
2022-08-22T03:09:21.998Z,93713.41
2022-08-22T03:10:27.786Z,93713.50
2022-08-22T03:11:35.038Z,93711.91
2022-08-22T03:12:43.556Z,93714.75
2022-08-22T03:13:53.704Z,93709.22
2022-08-22T03:15:03.018Z,93714.19
2022-08-22T03:16:10.307Z,93712.97
2022-08-22T03:17:18.911Z,93710.38
2022-08-22T03:18:25.702Z,93706.13
2022-08-22T03:19:32.124Z,93706.03
2022-08-22T03:20:46.641Z,93704.63
2022-08-22T03:21:56.905Z,93709.25
2022-08-22T03:23:05.497Z,93707.50
2022-08-22T03:24:12.545Z,93704.28
2022-08-22T03:25:23.315Z,93706.13
2022-08-22T03:26:28.336Z,93706.38
2022-08-22T03:27:39.411Z,93706.00
2022-08-22T03:28:59.349Z,93709.38
2022-08-22T03:30:06.114Z,93711.38
2022-08-22T03:31:13.986Z,93707.06
2022-08-22T03:32:18.453Z,93708.69
2022-08-22T03:33:22.519Z,93705.00
2022-08-22T03:34:25.594Z,93704.19
2022-08-22T03:35:35.035Z,93707.75
2022-08-22T03:36:36.551Z,93707.41
2022-08-22T03:37:42.169Z,93708.34
2022-08-22T03:39:02.433Z,93702.09
2022-08-22T03:40:31.796Z,93703.03
2022-08-22T03:42:00.390Z,93701.75
2022-08-22T03:43:31.823Z,93698.63
2022-08-22T03:45:03.450Z,93700.38
2022-08-22T03:46:40.174Z,93702.09
2022-08-22T03:48:16.233Z,93705.13
2022-08-22T03:49:59.214Z,93701.19
2022-08-22T03:51:28.780Z,93703.59
2022-08-22T03:52:51.742Z,93705.69
2022-08-22T03:54:32.918Z,93704.22
2022-08-22T03:56:00.958Z,93711.16
2022-08-22T03:57:30.443Z,93715.19
2022-08-22T03:58:57.237Z,93714.03
2022-08-22T04:00:23.763Z,93711.97
2022-08-22T04:01:46.625Z,93716.59
2022-08-22T04:03:28.775Z,93718.34
2022-08-22T04:05:12.878Z,93710.47
2022-08-22T04:06:43.126Z,93709.06
2022-08-22T04:08:29.142Z,93711.03
2022-08-22T04:10:07.473Z,93712.16
2022-08-22T04:11:38.780Z,93715.06
2022-08-22T04:12:55.803Z,93718.41
2022-08-22T04:14:17.559Z,93721.19
2022-08-22T04:15:35.938Z,93718.50
2022-08-22T04:16:54.701Z,93713.88
2022-08-22T04:18:23.952Z,93721.28
2022-08-22T04:19:59.721Z,93720.56
2022-08-22T04:21:28.270Z,93726.06
2022-08-22T04:23:02.052Z,93724.19
2022-08-22T04:24:33.405Z,93733.00
2022-08-22T04:25:39.109Z,93741.16
2022-08-22T04:26:47.924Z,93737.00
2022-08-22T04:27:54.584Z,93737.66
2022-08-22T04:29:02.957Z,93739.06
2022-08-22T04:30:10.790Z,93733.06
2022-08-22T04:31:14.392Z,93740.44
2022-08-22T04:32:21.768Z,93743.16
2022-08-22T04:33:27.781Z,93742.63
2022-08-22T04:34:37.361Z,93746.41
2022-08-22T04:35:42.840Z,93746.22
2022-08-22T04:36:48.718Z,93740.13
2022-08-22T04:37:56.316Z,93746.69
2022-08-22T04:39:03.071Z,93755.72
2022-08-22T04:40:13.051Z,93744.97
2022-08-22T04:41:20.411Z,93744.72
2022-08-22T04:42:33.318Z,93746.19
2022-08-22T04:43:39.997Z,93750.50
2022-08-22T04:44:47.394Z,93747.81
2022-08-22T04:45:56.062Z,93744.19
2022-08-22T04:47:02.220Z,93748.88
2022-08-22T04:48:09.074Z,93748.72
2022-08-22T04:49:16.891Z,93745.84
2022-08-22T04:50:22.881Z,93751.25
2022-08-22T04:51:30.377Z,93753.56
2022-08-22T04:52:52.639Z,93744.56
2022-08-22T04:54:29.087Z,93750.59
2022-08-22T04:55:42.463Z,93748.38
2022-08-22T04:57:08.126Z,93750.41
2022-08-22T04:58:35.770Z,93750.69
2022-08-22T04:59:37.337Z,93752.91
2022-08-22T05:00:42.430Z,93748.75
2022-08-22T05:01:47.578Z,93747.31
2022-08-22T05:02:54.922Z,93753.22
2022-08-22T05:03:59.424Z,93750.28
2022-08-22T05:05:04.811Z,93756.34
2022-08-22T05:06:18.435Z,93755.81
2022-08-22T05:07:23.502Z,93759.22
2022-08-22T05:08:29.335Z,93755.72
2022-08-22T05:09:34.797Z,93758.19
2022-08-22T05:10:40.836Z,93760.59
2022-08-22T05:11:43.278Z,93760.00
2022-08-22T05:12:54.106Z,93758.06
2022-08-22T05:14:00.904Z,93762.00
2022-08-22T05:15:09.687Z,93761.09
2022-08-22T05:16:15.894Z,93757.63
2022-08-22T05:17:23.836Z,93763.69
2022-08-22T05:18:29.525Z,93765.09
2022-08-22T05:19:35.614Z,93765.53
2022-08-22T05:20:42.177Z,93767.69
2022-08-22T05:21:45.661Z,93763.50
2022-08-22T05:22:51.364Z,93763.38
2022-08-22T05:23:57.177Z,93763.38
2022-08-22T05:25:05.444Z,93762.16
2022-08-22T05:26:08.108Z,93760.84
2022-08-22T05:27:13.956Z,93760.59
2022-08-22T05:28:25.713Z,93762.44
2022-08-22T05:29:32.054Z,93767.75
2022-08-22T05:30:35.368Z,93775.97
2022-08-22T05:31:43.208Z,93775.22
2022-08-22T05:32:50.475Z,93775.47
2022-08-22T05:33:56.247Z,93767.94
2022-08-22T05:35:01.041Z,93770.22
2022-08-22T05:36:08.178Z,93776.34
2022-08-22T05:37:15.197Z,93770.84
2022-08-22T05:38:22.490Z,93780.91
2022-08-22T05:39:25.545Z,93781.69
2022-08-22T05:40:31.545Z,93785.16
2022-08-22T05:41:37.042Z,93781.03
2022-08-22T05:42:38.548Z,93778.47
2022-08-22T05:43:42.040Z,93777.06
2022-08-22T05:44:44.929Z,93780.47
2022-08-22T05:45:47.600Z,93780.66
2022-08-22T05:46:54.726Z,93773.19
2022-08-22T05:48:03.104Z,93777.31
2022-08-22T05:49:14.061Z,93780.53
2022-08-22T05:50:19.788Z,93783.50
2022-08-22T05:51:25.831Z,93780.75
2022-08-22T05:52:59.401Z,93786.22
2022-08-22T05:54:11.466Z,93780.38
2022-08-22T05:55:23.349Z,93782.38
2022-08-22T05:56:34.183Z,93782.81
2022-08-22T05:57:39.637Z,93784.88
2022-08-22T05:58:51.482Z,93785.34
2022-08-22T06:00:01.103Z,93784.22
2022-08-22T06:01:13.287Z,93787.31
2022-08-22T06:02:21.411Z,93782.63
2022-08-22T06:03:30.300Z,93782.97
2022-08-22T06:04:37.044Z,93786.88
2022-08-22T06:05:41.759Z,93786.66
2022-08-22T06:06:52.215Z,93781.19
2022-08-22T06:08:00.462Z,93787.69
2022-08-22T06:09:07.719Z,93784.38
2022-08-22T06:10:21.962Z,93785.88
2022-08-22T06:11:33.907Z,93786.06
2022-08-22T06:12:39.189Z,93788.00
2022-08-22T06:13:50.095Z,93784.91
2022-08-22T06:15:02.453Z,93782.09
2022-08-22T06:16:17.098Z,93780.09
2022-08-22T06:17:22.407Z,93780.28
2022-08-22T06:18:26.819Z,93781.28
2022-08-22T06:19:28.498Z,93779.91
2022-08-22T06:20:37.506Z,93786.03
2022-08-22T06:21:39.768Z,93776.66
2022-08-22T06:22:47.859Z,93792.28
2022-08-22T06:23:53.002Z,93785.88
2022-08-22T06:24:58.760Z,93786.59
2022-08-22T06:26:01.932Z,93794.00
2022-08-22T06:27:08.598Z,93793.69
2022-08-22T06:28:25.128Z,93791.03
2022-08-22T06:29:35.218Z,93788.97
2022-08-22T06:30:39.643Z,93783.81
2022-08-22T06:31:46.949Z,93783.38
2022-08-22T06:33:00.124Z,93795.25
2022-08-22T06:34:06.292Z,93791.31
2022-08-22T06:35:15.337Z,93784.97
2022-08-22T06:36:21.583Z,93785.66
2022-08-22T06:37:30.723Z,93787.13
2022-08-22T06:38:39.955Z,93786.31
2022-08-22T06:39:45.094Z,93793.97
2022-08-22T06:40:46.995Z,93797.50
2022-08-22T06:41:52.392Z,93801.66
2022-08-22T06:42:55.468Z,93796.78
2022-08-22T06:43:59.013Z,93799.50
2022-08-22T06:45:05.685Z,93793.94
2022-08-22T06:46:09.614Z,93796.50
2022-08-22T06:47:18.087Z,93802.44
2022-08-22T06:48:22.595Z,93801.84
2022-08-22T06:49:25.492Z,93799.91
2022-08-22T06:50:32.758Z,93798.03
2022-08-22T06:51:36.692Z,93802.28
2022-08-22T06:52:53.383Z,93800.88
2022-08-22T06:54:01.105Z,93797.16
2022-08-22T06:55:06.754Z,93793.06
2022-08-22T06:56:08.745Z,93798.78
2022-08-22T06:57:25.816Z,93796.47
2022-08-22T06:58:30.988Z,93795.78
2022-08-22T06:59:38.320Z,93795.13
2022-08-22T07:00:42.336Z,93800.19
2022-08-22T07:01:51.582Z,93801.63
2022-08-22T07:02:57.236Z,93797.59
2022-08-22T07:04:02.946Z,93793.06
2022-08-22T07:05:06.518Z,93802.69
2022-08-22T07:06:14.325Z,93797.00
2022-08-22T07:07:19.581Z,93798.50
2022-08-22T07:08:23.664Z,93792.16
2022-08-22T07:09:28.887Z,93800.97
2022-08-22T07:10:30.481Z,93802.72
2022-08-22T07:11:36.698Z,93794.94
2022-08-22T07:12:38.403Z,93797.00
2022-08-22T07:13:47.307Z,93805.34
2022-08-22T07:14:52.078Z,93800.81
2022-08-22T07:15:56.288Z,93801.81
2022-08-22T07:17:01.500Z,93803.09
2022-08-22T07:18:07.662Z,93800.28
2022-08-22T07:19:10.240Z,93809.34
2022-08-22T07:20:20.786Z,93800.56
2022-08-22T07:21:25.838Z,93805.38
2022-08-22T07:22:30.515Z,93804.69
2022-08-22T07:23:34.842Z,93803.50
2022-08-22T07:24:36.715Z,93811.13
2022-08-22T07:25:50.762Z,93802.63
2022-08-22T07:27:13.503Z,93809.13
2022-08-22T07:28:34.730Z,93811.47
2022-08-22T07:29:50.066Z,93817.44
2022-08-22T07:30:55.914Z,93814.22
2022-08-22T07:32:07.005Z,93820.22
2022-08-22T07:33:27.114Z,93811.13
2022-08-22T07:34:40.384Z,93820.78
2022-08-22T07:35:53.528Z,93826.50
2022-08-22T07:37:00.141Z,93812.75
2022-08-22T07:38:09.367Z,93813.69
2022-08-22T07:39:25.418Z,93820.59
2022-08-22T07:40:33.938Z,93821.00
2022-08-22T07:41:48.924Z,93814.38
2022-08-22T07:42:56.137Z,93812.84
2022-08-22T07:44:10.017Z,93811.81
2022-08-22T07:45:18.403Z,93815.44
2022-08-22T07:46:28.372Z,93808.28
2022-08-22T07:47:49.196Z,93816.41
2022-08-22T07:49:08.498Z,93812.34
2022-08-22T07:50:16.936Z,93814.78
2022-08-22T07:51:25.565Z,93818.53
2022-08-22T07:52:33.437Z,93824.97
2022-08-22T07:53:41.072Z,93816.03
2022-08-22T07:54:48.220Z,93821.28
2022-08-22T07:55:50.084Z,93810.91
2022-08-22T07:56:57.026Z,93817.66
2022-08-22T07:58:01.439Z,93825.97
2022-08-22T07:59:13.005Z,93821.22
2022-08-22T08:00:18.885Z,93823.13
2022-08-22T08:01:23.366Z,93823.13
2022-08-22T08:02:25.906Z,93823.38
2022-08-22T08:03:30.844Z,93828.06
2022-08-22T08:04:40.013Z,93828.00
2022-08-22T08:05:44.469Z,93827.16
2022-08-22T08:06:48.052Z,93827.03
2022-08-22T08:07:53.854Z,93828.13
2022-08-22T08:08:56.441Z,93827.75
2022-08-22T08:10:04.355Z,93832.75
2022-08-22T08:11:08.690Z,93838.53
2022-08-22T08:12:12.371Z,93834.56
2022-08-22T08:13:20.861Z,93828.50
2022-08-22T08:14:25.513Z,93829.75
2022-08-22T08:15:27.674Z,93836.22
2022-08-22T08:16:39.855Z,93835.63
2022-08-22T08:17:42.956Z,93831.16
2022-08-22T08:18:47.970Z,93840.38
2022-08-22T08:19:50.809Z,93836.50
2022-08-22T08:20:56.967Z,93837.47
2022-08-22T08:21:59.259Z,93836.44
2022-08-22T08:23:02.910Z,93832.78
2022-08-22T08:24:08.565Z,93831.56
2022-08-22T08:25:13.932Z,93835.72
2022-08-22T08:26:17.973Z,93833.28
2022-08-22T08:27:23.410Z,93829.00
2022-08-22T08:28:25.459Z,93827.19
2022-08-22T08:29:27.231Z,93832.91
2022-08-22T08:30:40.376Z,93834.50
2022-08-22T08:31:44.793Z,93831.16
2022-08-22T08:32:51.111Z,93829.69
2022-08-22T08:34:04.514Z,93832.44
2022-08-22T08:35:19.975Z,93837.41
2022-08-22T08:36:33.309Z,93833.34
2022-08-22T08:37:42.226Z,93839.91
2022-08-22T08:38:48.635Z,93839.84
2022-08-22T08:39:53.559Z,93830.56
2022-08-22T08:41:22.508Z,93827.09
2022-08-22T08:42:55.101Z,93831.47
2022-08-22T08:44:05.854Z,93829.88
2022-08-22T08:45:22.081Z,93835.00
2022-08-22T08:46:55.683Z,93829.66
2022-08-22T08:48:14.792Z,93825.69
2022-08-22T08:49:42.985Z,93835.88
2022-08-22T08:51:02.042Z,93836.22
2022-08-22T08:52:24.639Z,93834.44
2022-08-22T08:53:50.984Z,93839.56
2022-08-22T08:55:01.378Z,93837.44
2022-08-22T08:56:12.246Z,93839.06
2022-08-22T08:57:24.689Z,93842.28
2022-08-22T08:58:33.961Z,93838.69
2022-08-22T08:59:48.112Z,93834.22
2022-08-22T09:00:55.174Z,93833.66
2022-08-22T09:02:34.934Z,93834.47
2022-08-22T09:04:24.350Z,93837.72
2022-08-22T09:06:14.301Z,93835.53
2022-08-22T09:07:41.193Z,93840.69
2022-08-22T09:09:10.928Z,93833.91
2022-08-22T09:12:15.551Z,93838.78
2022-08-22T09:13:42.762Z,93839.91
2022-08-22T09:15:11.901Z,93831.75
2022-08-22T09:16:46.252Z,93834.22
2022-08-22T09:18:20.029Z,93835.47
2022-08-22T09:19:49.714Z,93838.25
2022-08-22T09:21:30.424Z,93835.56
2022-08-22T09:23:12.280Z,93834.75
2022-08-22T09:24:50.235Z,93840.91
2022-08-22T09:25:56.413Z,93841.47
2022-08-22T09:27:01.112Z,93847.97
2022-08-22T09:28:19.490Z,93843.63
2022-08-22T09:29:51.675Z,93843.06
2022-08-22T09:31:32.897Z,93840.38
2022-08-22T09:32:51.631Z,93844.66
2022-08-22T09:33:58.454Z,93842.28
2022-08-22T09:35:06.613Z,93837.66
2022-08-22T09:36:19.055Z,93842.50
2022-08-22T09:37:31.697Z,93840.59
2022-08-22T09:38:53.845Z,93842.53
2022-08-22T09:40:01.323Z,93845.78
2022-08-22T09:40:15.394Z,93831.75
2022-08-22T09:41:14.619Z,93840.38
2022-08-22T09:42:29.789Z,93850.63
2022-08-22T09:43:38.112Z,93845.22
2022-08-22T09:44:59.370Z,93840.91
2022-08-22T09:46:11.171Z,93844.16
2022-08-22T09:47:24.476Z,93845.50
2022-08-22T09:48:38.602Z,93839.88
2022-08-22T09:49:51.551Z,93839.56
2022-08-22T09:51:13.779Z,93832.84
2022-08-22T09:52:36.071Z,93839.25
2022-08-22T09:53:57.834Z,93828.69
2022-08-22T09:55:08.118Z,93839.28
2022-08-22T09:56:19.655Z,93836.31
2022-08-22T09:57:33.701Z,93832.72
2022-08-22T09:58:41.934Z,93833.28
2022-08-22T10:00:22.143Z,93841.44
2022-08-22T10:01:32.986Z,93839.88
2022-08-22T10:02:43.357Z,93832.59
2022-08-22T10:04:33.003Z,93831.75
2022-08-22T10:05:44.878Z,93830.69
2022-08-22T10:06:55.631Z,93839.03
2022-08-22T10:08:11.236Z,93840.44
2022-08-22T10:09:31.526Z,93834.22
2022-08-22T10:10:50.228Z,93843.88
2022-08-22T10:11:59.929Z,93840.06
2022-08-22T10:13:10.723Z,93844.44
2022-08-22T10:14:22.359Z,93839.63
2022-08-22T10:15:35.419Z,93842.59
2022-08-22T10:16:56.891Z,93840.41
2022-08-22T10:18:10.319Z,93843.38
2022-08-22T10:19:18.361Z,93843.06
2022-08-22T10:20:29.924Z,93834.47
2022-08-22T10:21:40.245Z,93833.63
2022-08-22T10:22:51.706Z,93838.50
2022-08-22T10:23:58.925Z,93830.41
2022-08-22T10:25:29.886Z,93828.72
2022-08-22T10:26:40.086Z,93834.72
2022-08-22T10:27:50.739Z,93830.72
2022-08-22T10:28:56.273Z,93832.84
2022-08-22T10:30:06.665Z,93835.97
2022-08-22T10:31:42.805Z,93839.72
2022-08-22T10:33:04.038Z,93836.78
2022-08-22T10:34:12.158Z,93829.38
2022-08-22T10:35:20.929Z,93832.28
2022-08-22T10:36:31.067Z,93827.09
2022-08-22T10:37:36.927Z,93824.34
2022-08-22T10:38:47.179Z,93831.38
2022-08-22T10:40:00.357Z,93827.47
2022-08-22T10:41:13.720Z,93823.72
2022-08-22T10:42:27.994Z,93825.75
2022-08-22T10:43:38.883Z,93824.72
2022-08-22T10:44:52.522Z,93830.38
2022-08-22T10:46:02.661Z,93839.88
2022-08-22T10:47:08.192Z,93835.28
2022-08-22T10:48:22.375Z,93830.41
2022-08-22T10:49:29.419Z,93834.50
2022-08-22T10:50:35.724Z,93834.44
2022-08-22T10:51:45.101Z,93830.97
2022-08-22T10:52:49.625Z,93835.56
2022-08-22T10:54:09.422Z,93826.94
2022-08-22T10:55:15.480Z,93824.50
2022-08-22T10:56:24.787Z,93832.63
2022-08-22T10:57:53.050Z,93825.84
2022-08-22T10:59:02.959Z,93832.25
2022-08-22T11:00:13.195Z,93827.44
2022-08-22T11:01:41.499Z,93826.69
2022-08-22T11:02:53.144Z,93818.59
2022-08-22T11:04:09.855Z,93822.63
2022-08-22T11:05:34.151Z,93818.88
2022-08-22T11:06:44.827Z,93826.63
2022-08-22T11:07:50.254Z,93815.56
2022-08-22T11:09:07.644Z,93815.56
2022-08-22T11:10:19.843Z,93817.66
2022-08-22T11:11:35.904Z,93813.22
2022-08-22T11:12:53.445Z,93821.97
2022-08-22T11:14:19.174Z,93814.34
2022-08-22T11:15:43.713Z,93813.78
2022-08-22T11:16:56.417Z,93812.06
2022-08-22T11:18:15.614Z,93811.41
2022-08-22T11:19:32.107Z,93815.69
2022-08-22T11:20:48.751Z,93809.44
2022-08-22T11:22:00.414Z,93814.00
2022-08-22T11:23:19.669Z,93810.38
2022-08-22T11:25:05.826Z,93813.94
2022-08-22T11:26:29.285Z,93811.13
2022-08-22T11:27:46.487Z,93809.13
2022-08-22T11:29:13.237Z,93807.38
2022-08-22T11:30:20.320Z,93804.16
2022-08-22T11:31:36.781Z,93816.22
2022-08-22T11:32:46.540Z,93806.38
2022-08-22T11:33:55.343Z,93801.91
2022-08-22T11:35:00.482Z,93801.09
2022-08-22T11:36:11.903Z,93803.88
2022-08-22T11:37:24.083Z,93800.41
2022-08-22T11:38:53.592Z,93799.13
2022-08-22T11:40:05.548Z,93797.78
2022-08-22T11:41:14.198Z,93795.06
2022-08-22T11:42:23.331Z,93798.97
2022-08-22T11:43:39.978Z,93799.91
2022-08-22T11:44:50.717Z,93789.66
2022-08-22T11:45:57.950Z,93787.94
2022-08-22T11:47:07.212Z,93790.63
2022-08-22T11:48:19.915Z,93789.72
2022-08-22T11:49:33.849Z,93790.81
2022-08-22T11:50:39.405Z,93790.63
2022-08-22T11:52:10.787Z,93785.63
2022-08-22T11:53:24.168Z,93791.69
2022-08-22T11:54:34.942Z,93793.00
2022-08-22T11:55:38.414Z,93784.31
2022-08-22T11:56:46.363Z,93786.28
2022-08-22T11:57:50.030Z,93787.16
2022-08-22T11:58:59.348Z,93794.25
2022-08-22T12:00:20.984Z,93791.00
2022-08-22T12:01:34.209Z,93796.41
2022-08-22T12:02:49.017Z,93793.66
2022-08-22T12:04:09.834Z,93794.50
2022-08-22T12:05:24.267Z,93786.06
2022-08-22T12:06:57.205Z,93781.75
2022-08-22T12:08:08.999Z,93780.59
2022-08-22T12:09:23.083Z,93785.03
2022-08-22T12:10:30.165Z,93782.47
2022-08-22T12:11:38.907Z,93791.25
2022-08-22T12:12:54.064Z,93785.47
2022-08-22T12:14:06.017Z,93788.38
2022-08-22T12:15:16.480Z,93779.78
2022-08-22T12:16:27.759Z,93776.59
2022-08-22T12:17:55.877Z,93782.94
2022-08-22T12:19:16.573Z,93772.56
2022-08-22T12:20:40.566Z,93772.09
2022-08-22T12:22:30.547Z,93772.38
2022-08-22T12:23:54.893Z,93771.09
2022-08-22T12:25:08.488Z,93768.72
2022-08-22T12:26:17.462Z,93759.56
2022-08-22T12:27:40.420Z,93760.53
2022-08-22T12:29:03.237Z,93759.41
2022-08-22T12:30:13.923Z,93766.63
2022-08-22T12:31:25.561Z,93770.03
2022-08-22T12:32:46.497Z,93760.91
2022-08-22T12:34:16.474Z,93764.25
2022-08-22T12:35:30.362Z,93763.06
2022-08-22T12:36:53.642Z,93753.75
2022-08-22T12:38:28.360Z,93750.38
2022-08-22T12:39:55.071Z,93752.34
2022-08-22T12:41:48.206Z,93751.69
2022-08-22T12:43:06.608Z,93753.16
2022-08-22T12:44:39.172Z,93752.81
2022-08-22T12:45:57.623Z,93749.31
2022-08-22T12:47:29.643Z,93745.97
2022-08-22T12:48:51.488Z,93742.06
2022-08-22T12:50:10.923Z,93749.19
2022-08-22T12:51:29.505Z,93742.50
2022-08-22T12:52:47.599Z,93748.94
2022-08-22T12:54:33.498Z,93751.91
2022-08-22T12:55:50.360Z,93748.00
2022-08-22T12:57:02.737Z,93742.16
2022-08-22T12:58:08.889Z,93763.06
2022-08-22T12:59:26.115Z,93750.41
2022-08-22T13:00:33.676Z,93758.84
2022-08-22T13:01:39.222Z,93763.13
2022-08-22T13:02:44.970Z,93755.28
2022-08-22T13:03:50.110Z,93754.16
2022-08-22T13:04:55.626Z,93746.91
2022-08-22T13:06:00.405Z,93749.94
2022-08-22T13:07:08.586Z,93745.78
2022-08-22T13:08:17.343Z,93747.41
2022-08-22T13:09:28.915Z,93744.22
2022-08-22T13:10:42.463Z,93737.31
2022-08-22T13:11:49.357Z,93744.41
2022-08-22T13:12:55.624Z,93744.59
2022-08-22T13:14:00.364Z,93748.78
2022-08-22T13:15:12.807Z,93745.72
2022-08-22T13:16:19.347Z,93748.50
2022-08-22T13:17:24.270Z,93747.34
2022-08-22T13:18:33.864Z,93750.41
2022-08-22T13:19:52.537Z,93744.03
2022-08-22T13:20:56.876Z,93742.28
2022-08-22T13:22:03.849Z,93749.09
2022-08-22T13:23:12.383Z,93745.22
2022-08-22T13:24:22.749Z,93742.63
2022-08-22T13:25:59.041Z,93738.31
2022-08-22T13:27:07.345Z,93744.88
2022-08-22T13:28:12.243Z,93746.69
2022-08-22T13:29:39.476Z,93744.31
2022-08-22T13:30:41.742Z,93739.16
2022-08-22T13:31:52.238Z,93743.31
2022-08-22T13:33:04.281Z,93739.38
2022-08-22T13:34:28.090Z,93740.00
2022-08-22T13:35:33.751Z,93749.09
2022-08-22T13:36:42.919Z,93749.13
2022-08-22T13:37:58.536Z,93756.72
2022-08-22T13:39:06.990Z,93748.84
2022-08-22T13:40:13.867Z,93751.50
2022-08-22T13:41:21.770Z,93750.72
2022-08-22T13:42:30.891Z,93747.50
2022-08-22T13:43:36.893Z,93752.41
2022-08-22T13:44:43.164Z,93748.09
2022-08-22T13:45:53.952Z,93745.09
2022-08-22T13:47:14.506Z,93750.00
2022-08-22T13:48:16.422Z,93750.53
2022-08-22T13:49:30.567Z,93747.28
2022-08-22T13:50:37.532Z,93744.06
2022-08-22T13:52:14.448Z,93744.28
2022-08-22T13:53:38.005Z,93742.94
2022-08-22T13:54:52.493Z,93742.38
2022-08-22T13:56:01.270Z,93738.25
2022-08-22T13:57:11.180Z,93736.34
2022-08-22T13:58:27.717Z,93729.53
2022-08-22T13:59:51.081Z,93728.94
2022-08-22T14:01:20.123Z,93736.16
2022-08-22T14:02:43.191Z,93737.19
2022-08-22T14:03:49.753Z,93732.91
2022-08-22T14:04:54.555Z,93719.91
2022-08-22T14:06:32.401Z,93725.91
2022-08-22T14:07:29.646Z,93732.19
2022-08-22T14:08:36.202Z,93727.84
2022-08-22T14:09:49.154Z,93727.19
2022-08-22T14:11:03.919Z,93728.06
2022-08-22T14:12:12.604Z,93734.09
2022-08-22T14:13:31.683Z,93732.47
2022-08-22T14:14:36.269Z,93727.91
2022-08-22T14:15:45.484Z,93726.53
2022-08-22T14:16:51.853Z,93725.75
2022-08-22T14:18:00.944Z,93734.91